sensor_id;sensor_type;location;lat;lon;timestamp;pressure;altitude;pressure_sealevel;temperature;humidity
5500;BME280;2772;42.700;23.304;2023-04-08T00:01:19;95223.31;;;7.98;100.00
5500;BME280;2772;42.700;23.304;2023-04-08T00:03:55;95223.03;;;8.00;100.00
5500;BME280;2772;42.700;23.304;2023-04-08T00:06:25;95221.28;;;7.90;100.00
5500;BME280;2772;42.700;23.304;2023-04-08T00:08:52;95220.66;;;7.98;100.00
5500;BME280;2772;42.700;23.304;2023-04-08T00:11:19;95221.81;;;7.92;100.00
5500;BME280;2772;42.700;23.304;2023-04-08T00:13:48;95221.22;;;7.95;100.00
5500;BME280;2772;42.700;23.304;2023-04-08T00:16:17;95218.44;;;8.05;100.00
5500;BME280;2772;42.700;23.304;2023-04-08T00:18:43;95215.00;;;8.05;100.00
5500;BME280;2772;42.700;23.304;2023-04-08T00:21:10;95210.41;;;8.10;100.00
5500;BME280;2772;42.700;23.304;2023-04-08T00:23:38;95222.88;;;8.10;100.00
5500;BME280;2772;42.700;23.304;2023-04-08T00:26:04;95212.28;;;8.10;100.00
5500;BME280;2772;42.700;23.304;2023-04-08T00:28:38;95212.75;;;7.93;100.00
5500;BME280;2772;42.700;23.304;2023-04-08T00:31:07;95214.56;;;7.98;100.00
5500;BME280;2772;42.700;23.304;2023-04-08T00:33:35;95214.38;;;7.94;100.00
5500;BME280;2772;42.700;23.304;2023-04-08T00:36:02;95210.41;;;7.92;100.00
5500;BME280;2772;42.700;23.304;2023-04-08T00:38:28;95216.63;;;8.01;100.00
5500;BME280;2772;42.700;23.304;2023-04-08T00:40:55;95218.72;;;8.04;100.00
5500;BME280;2772;42.700;23.304;2023-04-08T00:43:22;95225.72;;;8.13;100.00
5500;BME280;2772;42.700;23.304;2023-04-08T00:45:49;95226.25;;;8.16;100.00
5500;BME280;2772;42.700;23.304;2023-04-08T00:48:16;95220.94;;;8.16;100.00
5500;BME280;2772;42.700;23.304;2023-04-08T00:50:44;95219.94;;;8.12;100.00
5500;BME280;2772;42.700;23.304;2023-04-08T00:53:12;95226.88;;;8.07;100.00
5500;BME280;2772;42.700;23.304;2023-04-08T00:55:41;95223.06;;;8.13;100.00
5500;BME280;2772;42.700;23.304;2023-04-08T00:58:09;95221.66;;;8.02;100.00
5500;BME280;2772;42.700;23.304;2023-04-08T01:00:49;95230.41;;;7.84;100.00
5500;BME280;2772;42.700;23.304;2023-04-08T01:03:24;95231.91;;;7.90;100.00
5500;BME280;2772;42.700;23.304;2023-04-08T01:05:57;95223.81;;;7.82;100.00
5500;BME280;2772;42.700;23.304;2023-04-08T01:08:26;95238.00;;;7.91;100.00
5500;BME280;2772;42.700;23.304;2023-04-08T01:10:59;95235.81;;;7.74;100.00
5500;BME280;2772;42.700;23.304;2023-04-08T01:13:30;95238.19;;;7.76;100.00
5500;BME280;2772;42.700;23.304;2023-04-08T01:16:00;95236.84;;;7.78;100.00
5500;BME280;2772;42.700;23.304;2023-04-08T01:18:28;95243.47;;;7.76;100.00
5500;BME280;2772;42.700;23.304;2023-04-08T01:20:58;95229.41;;;7.80;100.00
5500;BME280;2772;42.700;23.304;2023-04-08T01:23:32;95231.38;;;7.70;100.00
5500;BME280;2772;42.700;23.304;2023-04-08T01:26:03;95234.31;;;7.68;100.00
5500;BME280;2772;42.700;23.304;2023-04-08T01:28:32;95234.38;;;7.63;100.00
5500;BME280;2772;42.700;23.304;2023-04-08T01:31:01;95233.88;;;7.61;100.00
5500;BME280;2772;42.700;23.304;2023-04-08T01:33:29;95234.94;;;7.60;100.00
5500;BME280;2772;42.700;23.304;2023-04-08T01:35:58;95230.88;;;7.68;100.00
5500;BME280;2772;42.700;23.304;2023-04-08T01:38:27;95229.91;;;7.59;100.00
5500;BME280;2772;42.700;23.304;2023-04-08T01:40:55;95237.16;;;7.53;100.00
5500;BME280;2772;42.700;23.304;2023-04-08T01:43:24;95226.09;;;7.46;100.00
5500;BME280;2772;42.700;23.304;2023-04-08T01:45:53;95232.47;;;7.45;100.00
5500;BME280;2772;42.700;23.304;2023-04-08T01:48:23;95230.28;;;7.52;100.00
5500;BME280;2772;42.700;23.304;2023-04-08T01:50:50;95233.16;;;7.32;100.00
5500;BME280;2772;42.700;23.304;2023-04-08T01:53:17;95231.19;;;7.43;100.00
5500;BME280;2772;42.700;23.304;2023-04-08T01:55:44;95240.59;;;7.54;100.00
5500;BME280;2772;42.700;23.304;2023-04-08T01:58:17;95241.28;;;7.41;100.00
5500;BME280;2772;42.700;23.304;2023-04-08T02:00:47;95240.31;;;7.55;100.00
5500;BME280;2772;42.700;23.304;2023-04-08T02:03:16;95248.69;;;7.62;100.00
5500;BME280;2772;42.700;23.304;2023-04-08T02:05:44;95250.84;;;7.60;100.00
5500;BME280;2772;42.700;23.304;2023-04-08T02:08:11;95254.63;;;7.54;100.00
5500;BME280;2772;42.700;23.304;2023-04-08T02:10:37;95258.78;;;7.60;100.00
5500;BME280;2772;42.700;23.304;2023-04-08T02:13:05;95257.31;;;7.73;100.00
5500;BME280;2772;42.700;23.304;2023-04-08T02:15:33;95263.25;;;7.65;100.00
5500;BME280;2772;42.700;23.304;2023-04-08T02:18:08;95258.50;;;7.62;100.00
5500;BME280;2772;42.700;23.304;2023-04-08T02:20:37;95266.06;;;7.73;100.00
5500;BME280;2772;42.700;23.304;2023-04-08T02:23:09;95266.16;;;7.63;100.00
5500;BME280;2772;42.700;23.304;2023-04-08T02:25:42;95269.66;;;7.59;100.00
5500;BME280;2772;42.700;23.304;2023-04-08T02:28:10;95257.72;;;7.61;100.00
5500;BME280;2772;42.700;23.304;2023-04-08T02:30:45;95260.34;;;7.66;100.00
5500;BME280;2772;42.700;23.304;2023-04-08T02:33:17;95260.75;;;7.73;100.00
5500;BME280;2772;42.700;23.304;2023-04-08T02:35:45;95254.22;;;7.66;100.00
5500;BME280;2772;42.700;23.304;2023-04-08T02:38:13;95254.22;;;7.66;100.00
5500;BME280;2772;42.700;23.304;2023-04-08T02:40:40;95264.97;;;7.74;100.00
5500;BME280;2772;42.700;23.304;2023-04-08T02:43:07;95259.69;;;7.74;100.00
5500;BME280;2772;42.700;23.304;2023-04-08T02:45:39;95263.13;;;7.75;100.00
5500;BME280;2772;42.700;23.304;2023-04-08T02:48:06;95262.41;;;7.69;100.00
5500;BME280;2772;42.700;23.304;2023-04-08T02:50:34;95265.75;;;7.56;100.00
5500;BME280;2772;42.700;23.304;2023-04-08T02:53:01;95263.03;;;7.61;100.00
5500;BME280;2772;42.700;23.304;2023-04-08T02:55:28;95258.69;;;7.70;100.00
5500;BME280;2772;42.700;23.304;2023-04-08T02:57:54;95259.75;;;7.69;100.00
5500;BME280;2772;42.700;23.304;2023-04-08T03:00:21;95254.38;;;7.74;100.00
5500;BME280;2772;42.700;23.304;2023-04-08T03:02:48;95259.13;;;7.77;100.00
5500;BME280;2772;42.700;23.304;2023-04-08T03:05:14;95262.56;;;7.78;100.00
5500;BME280;2772;42.700;23.304;2023-04-08T03:07:43;95272.38;;;7.77;100.00
5500;BME280;2772;42.700;23.304;2023-04-08T03:10:10;95268.81;;;7.63;100.00
5500;BME280;2772;42.700;23.304;2023-04-08T03:12:36;95262.47;;;7.64;100.00
5500;BME280;2772;42.700;23.304;2023-04-08T03:15:04;95250.56;;;7.62;100.00
5500;BME280;2772;42.700;23.304;2023-04-08T03:17:30;95261.94;;;7.62;100.00
5500;BME280;2772;42.700;23.304;2023-04-08T03:19:58;95254.19;;;7.47;100.00
5500;BME280;2772;42.700;23.304;2023-04-08T03:22:25;95254.28;;;7.37;100.00
5500;BME280;2772;42.700;23.304;2023-04-08T03:24:53;95259.97;;;7.49;100.00
5500;BME280;2772;42.700;23.304;2023-04-08T03:27:20;95255.19;;;7.51;100.00
5500;BME280;2772;42.700;23.304;2023-04-08T03:29:47;95260.44;;;7.56;100.00
5500;BME280;2772;42.700;23.304;2023-04-08T03:32:13;95258.88;;;7.55;100.00
5500;BME280;2772;42.700;23.304;2023-04-08T03:34:40;95263.66;;;7.53;100.00
5500;BME280;2772;42.700;23.304;2023-04-08T03:37:07;95265.22;;;7.54;100.00
5500;BME280;2772;42.700;23.304;2023-04-08T03:39:33;95267.09;;;7.54;100.00
5500;BME280;2772;42.700;23.304;2023-04-08T03:42:02;95266.88;;;7.50;100.00
5500;BME280;2772;42.700;23.304;2023-04-08T03:44:28;95264.16;;;7.55;100.00
5500;BME280;2772;42.700;23.304;2023-04-08T03:46:55;95273.97;;;7.55;100.00
5500;BME280;2772;42.700;23.304;2023-04-08T03:49:22;95263.09;;;7.56;100.00
5500;BME280;2772;42.700;23.304;2023-04-08T03:51:49;95253.56;;;7.55;100.00
5500;BME280;2772;42.700;23.304;2023-04-08T03:54:16;95259.88;;;7.59;100.00
5500;BME280;2772;42.700;23.304;2023-04-08T03:56:42;95261.16;;;7.62;100.00
5500;BME280;2772;42.700;23.304;2023-04-08T03:59:10;95256.41;;;7.59;100.00
5500;BME280;2772;42.700;23.304;2023-04-08T04:01:37;95248.13;;;7.65;100.00
5500;BME280;2772;42.700;23.304;2023-04-08T04:04:04;95260.22;;;7.53;100.00
5500;BME280;2772;42.700;23.304;2023-04-08T04:06:31;95259.34;;;7.57;100.00
5500;BME280;2772;42.700;23.304;2023-04-08T04:08:57;95258.47;;;7.43;100.00
5500;BME280;2772;42.700;23.304;2023-04-08T04:11:24;95248.84;;;7.52;100.00
5500;BME280;2772;42.700;23.304;2023-04-08T04:13:51;95261.53;;;7.55;100.00
5500;BME280;2772;42.700;23.304;2023-04-08T04:16:19;95266.03;;;7.55;100.00
5500;BME280;2772;42.700;23.304;2023-04-08T04:18:46;95264.47;;;7.54;100.00
5500;BME280;2772;42.700;23.304;2023-04-08T04:21:12;95272.56;;;7.62;100.00
5500;BME280;2772;42.700;23.304;2023-04-08T04:23:39;95269.56;;;7.69;100.00
5500;BME280;2772;42.700;23.304;2023-04-08T04:26:07;95277.28;;;7.65;100.00
5500;BME280;2772;42.700;23.304;2023-04-08T04:28:34;95279.22;;;7.60;100.00
5500;BME280;2772;42.700;23.304;2023-04-08T04:31:01;95275.19;;;7.62;100.00
5500;BME280;2772;42.700;23.304;2023-04-08T04:33:29;95275.72;;;7.64;100.00
5500;BME280;2772;42.700;23.304;2023-04-08T04:35:55;95278.78;;;7.71;100.00
5500;BME280;2772;42.700;23.304;2023-04-08T04:38:22;95278.03;;;7.71;100.00
5500;BME280;2772;42.700;23.304;2023-04-08T04:40:49;95273.88;;;7.65;100.00
5500;BME280;2772;42.700;23.304;2023-04-08T04:43:15;95274.25;;;7.53;100.00
5500;BME280;2772;42.700;23.304;2023-04-08T04:45:42;95275.34;;;7.52;100.00
5500;BME280;2772;42.700;23.304;2023-04-08T04:48:09;95272.59;;;7.34;100.00
5500;BME280;2772;42.700;23.304;2023-04-08T04:50:37;95274.44;;;7.38;100.00
5500;BME280;2772;42.700;23.304;2023-04-08T04:53:04;95266.41;;;7.43;100.00
5500;BME280;2772;42.700;23.304;2023-04-08T04:55:30;95273.16;;;7.54;100.00
5500;BME280;2772;42.700;23.304;2023-04-08T04:57:57;95277.47;;;7.50;100.00
5500;BME280;2772;42.700;23.304;2023-04-08T05:00:24;95272.16;;;7.50;100.00
5500;BME280;2772;42.700;23.304;2023-04-08T05:02:50;95280.97;;;7.46;100.00
5500;BME280;2772;42.700;23.304;2023-04-08T05:05:17;95281.69;;;7.51;100.00
5500;BME280;2772;42.700;23.304;2023-04-08T05:07:46;95280.22;;;7.40;100.00
5500;BME280;2772;42.700;23.304;2023-04-08T05:10:12;95287.97;;;7.37;100.00
5500;BME280;2772;42.700;23.304;2023-04-08T05:12:39;95280.50;;;7.39;100.00
5500;BME280;2772;42.700;23.304;2023-04-08T05:15:06;95280.84;;;7.32;100.00
5500;BME280;2772;42.700;23.304;2023-04-08T05:17:33;95280.78;;;7.37;100.00
5500;BME280;2772;42.700;23.304;2023-04-08T05:20:01;95284.88;;;7.25;100.00
5500;BME280;2772;42.700;23.304;2023-04-08T05:22:28;95289.41;;;7.24;100.00
5500;BME280;2772;42.700;23.304;2023-04-08T05:24:56;95285.06;;;7.33;100.00
5500;BME280;2772;42.700;23.304;2023-04-08T05:27:23;95284.59;;;7.26;100.00
5500;BME280;2772;42.700;23.304;2023-04-08T05:29:50;95272.41;;;7.30;100.00
5500;BME280;2772;42.700;23.304;2023-04-08T05:32:16;95276.94;;;7.48;100.00
5500;BME280;2772;42.700;23.304;2023-04-08T05:34:43;95280.28;;;7.35;100.00
5500;BME280;2772;42.700;23.304;2023-04-08T05:37:10;95286.03;;;7.42;100.00
5500;BME280;2772;42.700;23.304;2023-04-08T05:39:37;95286.75;;;7.48;100.00
5500;BME280;2772;42.700;23.304;2023-04-08T05:42:05;95291.66;;;7.59;100.00
5500;BME280;2772;42.700;23.304;2023-04-08T05:44:31;95289.84;;;7.78;100.00
5500;BME280;2772;42.700;23.304;2023-04-08T05:46:58;95283.06;;;7.91;100.00
5500;BME280;2772;42.700;23.304;2023-04-08T05:49:25;95278.38;;;8.06;100.00
5500;BME280;2772;42.700;23.304;2023-04-08T05:51:52;95277.72;;;8.15;100.00
5500;BME280;2772;42.700;23.304;2023-04-08T05:54:18;95279.19;;;8.26;100.00
5500;BME280;2772;42.700;23.304;2023-04-08T05:56:45;95279.75;;;8.41;100.00
5500;BME280;2772;42.700;23.304;2023-04-08T05:59:14;95284.41;;;8.49;100.00
5500;BME280;2772;42.700;23.304;2023-04-08T06:01:41;95278.53;;;8.52;100.00
5500;BME280;2772;42.700;23.304;2023-04-08T06:04:07;95276.16;;;8.51;100.00
5500;BME280;2772;42.700;23.304;2023-04-08T06:06:36;95279.56;;;8.70;100.00
5500;BME280;2772;42.700;23.304;2023-04-08T06:09:03;95282.16;;;8.75;100.00
5500;BME280;2772;42.700;23.304;2023-04-08T06:11:30;95272.94;;;8.86;99.35
5500;BME280;2772;42.700;23.304;2023-04-08T06:13:56;95277.88;;;8.92;99.04
5500;BME280;2772;42.700;23.304;2023-04-08T06:16:24;95278.50;;;9.03;100.00
5500;BME280;2772;42.700;23.304;2023-04-08T06:18:51;95273.59;;;9.10;100.00
5500;BME280;2772;42.700;23.304;2023-04-08T06:21:18;95271.38;;;9.30;100.00
5500;BME280;2772;42.700;23.304;2023-04-08T06:23:45;95272.84;;;9.36;100.00
5500;BME280;2772;42.700;23.304;2023-04-08T06:26:12;95279.16;;;9.40;97.39
5500;BME280;2772;42.700;23.304;2023-04-08T06:28:39;95281.13;;;9.48;95.58
5500;BME280;2772;42.700;23.304;2023-04-08T06:31:05;95275.91;;;9.43;95.84
5500;BME280;2772;42.700;23.304;2023-04-08T06:33:33;95284.28;;;9.50;96.51
5500;BME280;2772;42.700;23.304;2023-04-08T06:36:01;95287.53;;;9.61;96.15
5500;BME280;2772;42.700;23.304;2023-04-08T06:38:28;95276.22;;;9.69;96.14
5500;BME280;2772;42.700;23.304;2023-04-08T06:40:55;95285.16;;;9.73;95.31
5500;BME280;2772;42.700;23.304;2023-04-08T06:43:22;95285.84;;;9.65;96.09
5500;BME280;2772;42.700;23.304;2023-04-08T06:45:49;95288.50;;;9.65;96.51
5500;BME280;2772;42.700;23.304;2023-04-08T06:48:16;95289.91;;;9.49;98.35
5500;BME280;2772;42.700;23.304;2023-04-08T06:50:44;95288.69;;;9.41;100.00
5500;BME280;2772;42.700;23.304;2023-04-08T06:53:11;95283.69;;;9.53;100.00
5500;BME280;2772;42.700;23.304;2023-04-08T06:55:37;95293.34;;;9.63;99.71
5500;BME280;2772;42.700;23.304;2023-04-08T06:58:04;95287.53;;;9.61;99.29
5500;BME280;2772;42.700;23.304;2023-04-08T07:00:31;95283.59;;;9.58;100.00
5500;BME280;2772;42.700;23.304;2023-04-08T07:02:58;95287.53;;;9.75;98.57
5500;BME280;2772;42.700;23.304;2023-04-08T07:05:25;95291.94;;;9.79;98.73
5500;BME280;2772;42.700;23.304;2023-04-08T07:07:53;95279.94;;;9.82;98.57
5500;BME280;2772;42.700;23.304;2023-04-08T07:10:20;95282.31;;;9.83;98.47
5500;BME280;2772;42.700;23.304;2023-04-08T07:12:46;95288.41;;;9.84;97.80
5500;BME280;2772;42.700;23.304;2023-04-08T07:15:13;95294.63;;;9.79;98.79
5500;BME280;2772;42.700;23.304;2023-04-08T07:17:40;95296.69;;;9.96;99.74
5500;BME280;2772;42.700;23.304;2023-04-08T07:20:07;95296.84;;;9.99;99.79
5500;BME280;2772;42.700;23.304;2023-04-08T07:22:34;95302.81;;;10.10;98.90
5500;BME280;2772;42.700;23.304;2023-04-08T07:25:02;95299.75;;;10.16;98.54
5500;BME280;2772;42.700;23.304;2023-04-08T07:27:29;95297.34;;;10.28;97.95
5500;BME280;2772;42.700;23.304;2023-04-08T07:29:56;95303.94;;;10.31;97.72
5500;BME280;2772;42.700;23.304;2023-04-08T07:32:23;95302.38;;;10.30;96.38
5500;BME280;2772;42.700;23.304;2023-04-08T07:34:50;95305.00;;;10.43;94.98
5500;BME280;2772;42.700;23.304;2023-04-08T07:37:17;95302.16;;;10.40;94.31
5500;BME280;2772;42.700;23.304;2023-04-08T07:39:43;95314.19;;;10.37;95.06
5500;BME280;2772;42.700;23.304;2023-04-08T07:42:12;95309.09;;;10.27;94.78
5500;BME280;2772;42.700;23.304;2023-04-08T07:44:38;95315.19;;;10.41;95.79
5500;BME280;2772;42.700;23.304;2023-04-08T07:47:05;95308.81;;;10.51;94.78
5500;BME280;2772;42.700;23.304;2023-04-08T07:49:32;95315.50;;;10.62;94.04
5500;BME280;2772;42.700;23.304;2023-04-08T07:51:58;95324.94;;;10.68;94.13
5500;BME280;2772;42.700;23.304;2023-04-08T07:54:25;95324.81;;;10.86;94.56
5500;BME280;2772;42.700;23.304;2023-04-08T07:56:52;95328.31;;;10.95;94.18
5500;BME280;2772;42.700;23.304;2023-04-08T07:59:20;95326.38;;;11.09;93.69
5500;BME280;2772;42.700;23.304;2023-04-08T08:01:47;95326.06;;;11.11;92.89
5500;BME280;2772;42.700;23.304;2023-04-08T08:04:13;95339.13;;;11.21;90.58
5500;BME280;2772;42.700;23.304;2023-04-08T08:06:40;95329.78;;;11.32;91.73
5500;BME280;2772;42.700;23.304;2023-04-08T08:09:07;95331.53;;;11.37;92.34
5500;BME280;2772;42.700;23.304;2023-04-08T08:11:33;95332.03;;;11.39;91.93
5500;BME280;2772;42.700;23.304;2023-04-08T08:14:00;95330.38;;;11.20;92.57
5500;BME280;2772;42.700;23.304;2023-04-08T08:16:30;95336.25;;;11.09;93.78
5500;BME280;2772;42.700;23.304;2023-04-08T08:18:58;95339.31;;;11.24;92.76
5500;BME280;2772;42.700;23.304;2023-04-08T08:21:24;95321.47;;;11.25;92.67
5500;BME280;2772;42.700;23.304;2023-04-08T08:23:52;95325.88;;;11.07;93.27
5500;BME280;2772;42.700;23.304;2023-04-08T08:26:19;95325.97;;;11.16;93.24
5500;BME280;2772;42.700;23.304;2023-04-08T08:28:46;95325.66;;;11.17;93.30
5500;BME280;2772;42.700;23.304;2023-04-08T08:31:12;95330.84;;;11.22;94.81
5500;BME280;2772;42.700;23.304;2023-04-08T08:33:41;95336.63;;;11.47;92.83
5500;BME280;2772;42.700;23.304;2023-04-08T08:36:07;95337.34;;;11.61;91.51
5500;BME280;2772;42.700;23.304;2023-04-08T08:38:34;95326.44;;;11.71;89.33
5500;BME280;2772;42.700;23.304;2023-04-08T08:41:01;95333.34;;;11.72;89.13
5500;BME280;2772;42.700;23.304;2023-04-08T08:43:28;95325.22;;;11.77;87.82
5500;BME280;2772;42.700;23.304;2023-04-08T08:45:58;95317.84;;;11.82;87.11
5500;BME280;2772;42.700;23.304;2023-04-08T08:48:25;95319.88;;;11.85;87.58
5500;BME280;2772;42.700;23.304;2023-04-08T08:50:53;95321.78;;;11.85;87.32
5500;BME280;2772;42.700;23.304;2023-04-08T08:53:20;95312.56;;;11.91;86.69
5500;BME280;2772;42.700;23.304;2023-04-08T08:55:48;95330.03;;;12.14;85.85
5500;BME280;2772;42.700;23.304;2023-04-08T08:58:15;95332.34;;;11.98;84.47
5500;BME280;2772;42.700;23.304;2023-04-08T09:00:41;95329.25;;;12.13;84.72
5500;BME280;2772;42.700;23.304;2023-04-08T09:03:16;95329.47;;;12.25;84.29
5500;BME280;2772;42.700;23.304;2023-04-08T09:05:47;95328.34;;;12.35;83.90
5500;BME280;2772;42.700;23.304;2023-04-08T09:08:29;95329.94;;;12.36;83.59
5500;BME280;2772;42.700;23.304;2023-04-08T09:11:10;95328.72;;;12.50;84.07
5500;BME280;2772;42.700;23.304;2023-04-08T09:13:37;95343.19;;;12.58;84.70
5500;BME280;2772;42.700;23.304;2023-04-08T09:16:06;95330.13;;;12.48;84.00
5500;BME280;2772;42.700;23.304;2023-04-08T09:18:34;95329.66;;;12.63;83.55
5500;BME280;2772;42.700;23.304;2023-04-08T09:21:01;95327.59;;;12.60;84.07
5500;BME280;2772;42.700;23.304;2023-04-08T09:23:41;95326.38;;;12.92;83.40
5500;BME280;2772;42.700;23.304;2023-04-08T09:26:09;95329.69;;;12.89;82.13
5500;BME280;2772;42.700;23.304;2023-04-08T09:28:36;95318.53;;;13.04;81.42
5500;BME280;2772;42.700;23.304;2023-04-08T09:31:17;95316.97;;;13.11;80.58
5500;BME280;2772;42.700;23.304;2023-04-08T09:33:45;95317.56;;;13.25;80.87
5500;BME280;2772;42.700;23.304;2023-04-08T09:36:13;95324.34;;;13.31;79.33
5500;BME280;2772;42.700;23.304;2023-04-08T09:38:41;95309.84;;;13.32;79.11
5500;BME280;2772;42.700;23.304;2023-04-08T09:41:08;95313.47;;;13.28;79.35
5500;BME280;2772;42.700;23.304;2023-04-08T09:43:42;95309.69;;;13.37;78.85
5500;BME280;2772;42.700;23.304;2023-04-08T09:46:14;95302.63;;;13.24;78.96
5500;BME280;2772;42.700;23.304;2023-04-08T09:48:47;95306.88;;;13.17;78.97
5500;BME280;2772;42.700;23.304;2023-04-08T09:51:15;95301.38;;;12.96;78.54
5500;BME280;2772;42.700;23.304;2023-04-08T09:53:46;95299.81;;;12.95;78.26
5500;BME280;2772;42.700;23.304;2023-04-08T09:56:13;95302.97;;;12.97;79.37
5500;BME280;2772;42.700;23.304;2023-04-08T09:58:50;95294.13;;;12.97;78.29
5500;BME280;2772;42.700;23.304;2023-04-08T10:01:23;95294.31;;;12.74;80.62
5500;BME280;2772;42.700;23.304;2023-04-08T10:03:53;95296.19;;;12.74;81.35
5500;BME280;2772;42.700;23.304;2023-04-08T10:06:21;95290.06;;;12.73;80.99
5500;BME280;2772;42.700;23.304;2023-04-08T10:08:54;95299.66;;;12.74;80.73
5500;BME280;2772;42.700;23.304;2023-04-08T10:11:22;95291.66;;;12.66;79.96
5500;BME280;2772;42.700;23.304;2023-04-08T10:13:49;95294.13;;;12.71;79.11
5500;BME280;2772;42.700;23.304;2023-04-08T10:16:20;95287.22;;;12.53;80.44
5500;BME280;2772;42.700;23.304;2023-04-08T10:18:49;95293.19;;;12.50;81.88
5500;BME280;2772;42.700;23.304;2023-04-08T10:21:36;95285.97;;;12.50;81.26
5500;BME280;2772;42.700;23.304;2023-04-08T10:24:08;95288.97;;;12.57;82.16
5500;BME280;2772;42.700;23.304;2023-04-08T10:26:37;95282.84;;;12.65;82.95
5500;BME280;2772;42.700;23.304;2023-04-08T10:29:29;95274.97;;;12.69;82.32
5500;BME280;2772;42.700;23.304;2023-04-08T10:31:56;95277.63;;;12.77;80.97
5500;BME280;2772;42.700;23.304;2023-04-08T10:34:24;95274.66;;;12.79;79.79
5500;BME280;2772;42.700;23.304;2023-04-08T10:36:52;95273.88;;;13.04;79.95
5500;BME280;2772;42.700;23.304;2023-04-08T10:39:21;95264.13;;;13.08;79.76
5500;BME280;2772;42.700;23.304;2023-04-08T10:41:49;95256.88;;;13.17;79.57
5500;BME280;2772;42.700;23.304;2023-04-08T10:44:16;95263.72;;;13.35;77.51
5500;BME280;2772;42.700;23.304;2023-04-08T10:46:43;95249.13;;;13.24;77.81
5500;BME280;2772;42.700;23.304;2023-04-08T10:49:10;95255.25;;;13.25;76.69
5500;BME280;2772;42.700;23.304;2023-04-08T10:51:37;95255.06;;;13.38;75.66
5500;BME280;2772;42.700;23.304;2023-04-08T10:54:07;95256.19;;;13.37;75.33
5500;BME280;2772;42.700;23.304;2023-04-08T10:56:43;95259.03;;;13.32;75.80
5500;BME280;2772;42.700;23.304;2023-04-08T10:59:10;95246.31;;;13.21;77.30
5500;BME280;2772;42.700;23.304;2023-04-08T11:01:37;95246.75;;;13.23;77.04
5500;BME280;2772;42.700;23.304;2023-04-08T11:04:10;95246.59;;;13.28;75.33
5500;BME280;2772;42.700;23.304;2023-04-08T11:06:37;95235.56;;;13.38;72.92
5500;BME280;2772;42.700;23.304;2023-04-08T11:09:04;95232.38;;;13.44;73.04
5500;BME280;2772;42.700;23.304;2023-04-08T11:11:31;95222.78;;;13.43;73.84
5500;BME280;2772;42.700;23.304;2023-04-08T11:13:59;95218.22;;;13.44;73.56
5500;BME280;2772;42.700;23.304;2023-04-08T11:16:26;95228.53;;;13.62;73.75
5500;BME280;2772;42.700;23.304;2023-04-08T11:18:54;95221.19;;;13.51;73.38
5500;BME280;2772;42.700;23.304;2023-04-08T11:21:22;95226.28;;;13.73;73.25
5500;BME280;2772;42.700;23.304;2023-04-08T11:23:50;95230.66;;;13.77;71.86
5500;BME280;2772;42.700;23.304;2023-04-08T11:26:17;95219.81;;;14.03;70.38
5500;BME280;2772;42.700;23.304;2023-04-08T11:28:45;95219.38;;;14.21;66.98
5500;BME280;2772;42.700;23.304;2023-04-08T11:31:14;95208.03;;;14.24;66.13
5500;BME280;2772;42.700;23.304;2023-04-08T11:33:46;95207.25;;;14.45;65.90
5500;BME280;2772;42.700;23.304;2023-04-08T11:36:14;95201.09;;;14.65;65.09
5500;BME280;2772;42.700;23.304;2023-04-08T11:38:41;95197.03;;;14.59;62.97
5500;BME280;2772;42.700;23.304;2023-04-08T11:41:08;95202.81;;;14.49;62.24
5500;BME280;2772;42.700;23.304;2023-04-08T11:43:36;95194.81;;;14.19;63.00
5500;BME280;2772;42.700;23.304;2023-04-08T11:46:12;95191.97;;;14.24;63.09
5500;BME280;2772;42.700;23.304;2023-04-08T11:48:40;95190.47;;;14.36;62.79
5500;BME280;2772;42.700;23.304;2023-04-08T11:51:08;95182.66;;;14.43;62.52
5500;BME280;2772;42.700;23.304;2023-04-08T11:53:35;95183.72;;;14.50;62.13
5500;BME280;2772;42.700;23.304;2023-04-08T11:56:15;95174.22;;;14.53;61.58
5500;BME280;2772;42.700;23.304;2023-04-08T11:58:42;95180.25;;;14.29;59.72
5500;BME280;2772;42.700;23.304;2023-04-08T12:01:08;95188.06;;;14.13;60.89
5500;BME280;2772;42.700;23.304;2023-04-08T12:03:35;95174.97;;;13.91;61.10
5500;BME280;2772;42.700;23.304;2023-04-08T12:06:03;95187.47;;;13.87;61.62
5500;BME280;2772;42.700;23.304;2023-04-08T12:08:33;95183.41;;;13.81;61.73
5500;BME280;2772;42.700;23.304;2023-04-08T12:10:59;95180.66;;;13.90;61.00
5500;BME280;2772;42.700;23.304;2023-04-08T12:13:26;95167.41;;;13.93;61.76
5500;BME280;2772;42.700;23.304;2023-04-08T12:15:53;95174.22;;;14.11;61.01
5500;BME280;2772;42.700;23.304;2023-04-08T12:18:21;95169.41;;;14.25;61.18
5500;BME280;2772;42.700;23.304;2023-04-08T12:20:48;95173.03;;;14.21;61.91
5500;BME280;2772;42.700;23.304;2023-04-08T12:23:16;95175.03;;;14.32;62.02
5500;BME280;2772;42.700;23.304;2023-04-08T12:25:43;95166.91;;;14.41;62.00
5500;BME280;2772;42.700;23.304;2023-04-08T12:28:09;95169.06;;;14.48;60.09
5500;BME280;2772;42.700;23.304;2023-04-08T12:30:36;95160.13;;;14.44;59.88
5500;BME280;2772;42.700;23.304;2023-04-08T12:33:03;95161.69;;;14.24;60.53
5500;BME280;2772;42.700;23.304;2023-04-08T12:35:29;95159.06;;;14.15;61.91
5500;BME280;2772;42.700;23.304;2023-04-08T12:37:56;95155.16;;;14.33;61.90
5500;BME280;2772;42.700;23.304;2023-04-08T12:40:24;95157.28;;;14.19;62.87
5500;BME280;2772;42.700;23.304;2023-04-08T12:42:51;95147.66;;;14.27;62.74
5500;BME280;2772;42.700;23.304;2023-04-08T12:45:18;95150.84;;;14.41;60.30
5500;BME280;2772;42.700;23.304;2023-04-08T12:47:45;95148.50;;;14.40;60.33
5500;BME280;2772;42.700;23.304;2023-04-08T12:50:12;95149.75;;;14.42;61.02
5500;BME280;2772;42.700;23.304;2023-04-08T12:52:39;95156.97;;;14.00;62.88
5500;BME280;2772;42.700;23.304;2023-04-08T12:55:07;95160.09;;;14.02;63.53
5500;BME280;2772;42.700;23.304;2023-04-08T12:57:35;95161.34;;;13.84;65.12
5500;BME280;2772;42.700;23.304;2023-04-08T13:00:02;95170.56;;;13.66;65.93
5500;BME280;2772;42.700;23.304;2023-04-08T13:02:29;95168.72;;;13.58;67.21
5500;BME280;2772;42.700;23.304;2023-04-08T13:04:56;95168.59;;;13.55;68.19
5500;BME280;2772;42.700;23.304;2023-04-08T13:07:23;95172.44;;;13.45;70.14
5500;BME280;2772;42.700;23.304;2023-04-08T13:09:50;95173.41;;;13.32;72.30
5500;BME280;2772;42.700;23.304;2023-04-08T13:12:16;95172.44;;;13.45;72.51
5500;BME280;2772;42.700;23.304;2023-04-08T13:14:44;95175.84;;;13.54;75.17
5500;BME280;2772;42.700;23.304;2023-04-08T13:17:11;95177.53;;;13.59;79.48